world map with LIN marked

LIN - Airport

This information may not be accurate or current and is not valid for navigation or flight planning. No warranty of fitness for any purpose is made or implied.

flag of Lombardyflag of Italy

Donate via PayPal

Additional information is available on the NEW Great Circle Mapper

Location
City:  Milan, Lombardy, Italy
Near (Alt.):Milano
Name:Linate
ICAO / IATA:LIML / LIN

Details
Type:Airport (Aerodrome, Airfield)
Use:Public/Civil
Latitude:45°26'42"N (45.445103)
Longitude:9°16'36"E (9.276739)
Datum:WGS 1984
Elevation:353 ft (108 m)
Runways:2
Longest:8005 × 197 ft (2440 × 60 m)

Time
Timezone:UTC+1 (DST+4)
Local Time:

Weather
METAR:LIML  041350Z VRB04KT CAVOK 11/M00 Q1025 NOSIG
TAF:LIML  041100Z 0412/0512 VRB05KT CAVOK TEMPO 0500/0506 1500 BCFG

Related Locations
Nearby:
Farthest:CHT: 12135 mi / 19529 km
Waitangi [Tuuta], CIT, NZ

Find:

   beyond  
but within

Other Information
Maps:
Links:
Sources:

  


 


Great Circle Mapper   Great Circle Mapper
Great Circle Mapper FAQ   Great Circle Mapper FAQ
  Karl's Home Page
KLSē   KLSē Home
   GC on Facebook
Airlines of the World   Airlines of the World
Donate via PayPal


Copyright © 2004-2019, Karl L. Swartz. All rights reserved.
All trademarks mentioned herein belong to their respective owners.

Please see credits for attribution and copyright information.

Karl Swartz <karl@kls2.com>
  Powered by FreeBSD
Valid HTML 4.01!
Labeled with ICRA
hCard Microformat
Geo Microformat